Ana Sayfa
METAR-TAF:

METAR-TAF

Havaalanları :

Salvador, Bahia, Brezilya

Enlem: 12-54S, Boylam: 038-20W, yükseklik: 6 m

Güncel hava durumu gözlemi

Rapor saat 03:00 UTC de 1 saat ve 3 dakika önce yapıldı.
Rüzgar kuzeydoğudan 5 kt
Sıcaklık 27°C
Nem 84%
Basınç 1013 hPa
Görüş mesafesi 10 km veya daha fazla
2000 ft yükseklikte parçalı bulutlu
6000 ft yükseklikte parçalı çok bulutlu

METAR: SBSV 200300Z 05005KT 9999 SCT020 BKN060 27/24 Q1013

Saat: 01:03 (04:03 UTC)

Tahmin

Rapor saat 22:00 UTC de 6 saat ve 3 dakika önce yapıldı.
Ayın 20'si saat 00 UTC'den ayın 20'si saat 24 UTC'ye kadar geçerli Tahmin
Rüzgar doğudan 10 kt
Görüş mesafesi 10 km veya daha fazla
2000 ft yükseklikte parçalı bulutlu

TAF: SBSV 192200Z 2000/2024 09010KT 9999 SCT020 TN25/2004Z TX30/2014Z RMK PEU

4.000'den fazla havaalanı için hava durumu gözlemleri ve tahminleri (METAR ve TAF raporları).

Kullanılabilir istasyonlar harita üzerinde sarı ve kırmızı noktalarla gösterilir.

İstasyonun adını görmek için fareyi noktanın üzerinde gezdirin.

Sonrasında hava gözlem ve tahminlerini görmek için tıklayın.

Haritayı değiştirmek için: yaklaştırmak için siyah artı işaretli yeşil düğmeye ve uzaklaştırmak için de eksi işaretli düğmeye hızla tıklayın; bitişik haritalar için yeşil okları kullanın.


METAR-TAF: